createdAt,value
2022-10-28T00:01:15.580Z,77.80
2022-10-28T00:03:45.295Z,77.80
2022-10-28T00:06:15.980Z,77.80
2022-10-28T00:08:44.520Z,78.00
2022-10-28T00:11:17.222Z,78.00
2022-10-28T00:13:47.875Z,78.10
2022-10-28T00:16:18.057Z,78.00
2022-10-28T00:18:46.970Z,78.00
2022-10-28T00:21:17.459Z,77.90
2022-10-28T00:23:46.274Z,77.80
2022-10-28T00:26:17.062Z,77.80
2022-10-28T00:28:47.830Z,77.70
2022-10-28T00:31:18.062Z,77.60
2022-10-28T00:33:46.922Z,77.70
2022-10-28T00:36:17.564Z,77.70
2022-10-28T00:38:47.351Z,77.60
2022-10-28T00:41:17.906Z,77.60
2022-10-28T00:43:50.820Z,77.50
2022-10-28T00:46:25.578Z,77.60
2022-10-28T00:48:58.540Z,77.60
2022-10-28T00:51:28.533Z,77.70
2022-10-28T00:53:57.837Z,77.80
2022-10-28T00:56:29.341Z,77.90
2022-10-28T00:59:02.330Z,78.00
2022-10-28T01:01:30.654Z,77.90
2022-10-28T01:03:59.147Z,77.60
2022-10-28T01:06:29.346Z,77.60
2022-10-28T01:09:00.015Z,77.80
2022-10-28T01:11:40.719Z,77.70
2022-10-28T01:14:28.033Z,77.60
2022-10-28T01:17:11.479Z,78.30
2022-10-28T01:20:04.143Z,77.50
2022-10-28T01:22:37.606Z,77.50
2022-10-28T01:25:37.164Z,77.60
2022-10-28T01:28:31.082Z,77.70
2022-10-28T01:31:31.652Z,77.80
2022-10-28T01:34:08.728Z,77.80
2022-10-28T01:36:41.553Z,77.80
2022-10-28T01:39:19.486Z,77.80
2022-10-28T01:41:55.129Z,77.90
2022-10-28T01:44:28.498Z,78.00
2022-10-28T01:47:04.910Z,78.10
2022-10-28T01:49:39.549Z,78.10
2022-10-28T01:52:13.034Z,78.20
2022-10-28T01:54:44.727Z,78.10
2022-10-28T01:57:16.062Z,78.10
2022-10-28T01:59:46.431Z,78.00
2022-10-28T02:02:18.977Z,78.00
2022-10-28T02:04:47.219Z,77.90
2022-10-28T02:07:16.162Z,78.00
2022-10-28T02:10:02.694Z,77.90
2022-10-28T02:12:32.806Z,77.90
2022-10-28T02:15:20.642Z,77.80
2022-10-28T02:18:01.309Z,77.80
2022-10-28T02:20:38.022Z,77.80
2022-10-28T02:23:18.135Z,77.80
2022-10-28T02:25:52.544Z,77.90
2022-10-28T02:28:25.990Z,78.10
2022-10-28T02:31:00.295Z,78.20
2022-10-28T02:33:33.570Z,78.10
2022-10-28T02:36:05.710Z,78.00
2022-10-28T02:38:37.154Z,78.10
2022-10-28T02:41:12.806Z,78.00
2022-10-28T02:43:45.078Z,78.00
2022-10-28T02:46:15.946Z,78.00
2022-10-28T02:48:49.437Z,77.90
2022-10-28T02:51:21.049Z,78.10
2022-10-28T02:54:00.382Z,78.20
2022-10-28T02:56:29.811Z,78.20
2022-10-28T02:58:58.036Z,78.30
2022-10-28T03:01:26.314Z,78.20
2022-10-28T03:03:56.123Z,78.30
2022-10-28T03:08:57.414Z,78.30
2022-10-28T03:11:25.602Z,78.30
2022-10-28T03:13:53.759Z,79.00
2022-10-28T03:16:21.946Z,78.30
2022-10-28T03:18:50.194Z,78.30
2022-10-28T03:21:19.800Z,78.30
2022-10-28T03:23:48.050Z,78.10
2022-10-28T03:26:16.244Z,78.00
2022-10-28T03:28:44.463Z,77.90
2022-10-28T03:31:12.646Z,78.00
2022-10-28T03:33:40.838Z,77.90
2022-10-28T03:36:09.344Z,77.90
2022-10-28T03:38:38.894Z,77.90
2022-10-28T03:41:07.237Z,77.90
2022-10-28T03:43:35.386Z,77.80
2022-10-28T03:46:03.545Z,77.80
2022-10-28T03:48:31.754Z,77.80
2022-10-28T03:50:59.934Z,77.90
2022-10-28T03:53:31.157Z,77.90
2022-10-28T03:56:02.594Z,77.90
2022-10-28T03:58:31.159Z,77.90
2022-10-28T04:00:59.588Z,78.00
2022-10-28T04:03:27.905Z,78.10
2022-10-28T04:05:56.128Z,78.30
2022-10-28T04:08:24.309Z,78.30
2022-10-28T04:10:52.490Z,78.30
2022-10-28T04:13:22.100Z,78.30
2022-10-28T04:15:50.318Z,78.30
2022-10-28T04:18:18.623Z,78.10
2022-10-28T04:20:47.291Z,78.00
2022-10-28T04:23:18.331Z,77.90
2022-10-28T04:25:47.388Z,78.00
2022-10-28T04:28:15.559Z,78.10
2022-10-28T04:30:47.234Z,78.10
2022-10-28T04:33:15.451Z,78.10
2022-10-28T04:35:43.815Z,78.00
2022-10-28T04:38:12.401Z,78.00
2022-10-28T04:40:40.786Z,78.00
2022-10-28T04:43:10.201Z,77.70
2022-10-28T04:45:39.173Z,77.30
2022-10-28T04:48:10.119Z,77.20
2022-10-28T04:50:38.299Z,77.20
2022-10-28T04:53:06.475Z,77.00
2022-10-28T04:55:34.667Z,76.90
2022-10-28T04:58:02.907Z,77.00
2022-10-28T05:00:31.670Z,77.00
2022-10-28T05:03:03.853Z,77.00
2022-10-28T05:05:33.547Z,77.00
2022-10-28T05:08:02.003Z,77.00
2022-10-28T05:10:30.773Z,76.80
2022-10-28T05:12:58.979Z,76.70
2022-10-28T05:15:27.394Z,76.60
2022-10-28T05:17:56.027Z,76.50
2022-10-28T05:20:24.963Z,76.50
2022-10-28T05:22:57.043Z,76.50
2022-10-28T05:25:25.706Z,76.30
2022-10-28T05:27:54.015Z,76.30
2022-10-28T05:30:22.175Z,76.20
2022-10-28T05:32:52.920Z,76.10
2022-10-28T05:35:23.412Z,76.10
2022-10-28T05:37:51.651Z,76.20
2022-10-28T05:40:21.398Z,76.20
2022-10-28T05:42:49.819Z,76.30
2022-10-28T05:45:18.308Z,76.40
2022-10-28T05:47:47.765Z,76.40
2022-10-28T05:50:18.798Z,76.40
2022-10-28T05:52:48.528Z,76.50
2022-10-28T05:55:19.444Z,76.60
2022-10-28T05:57:50.254Z,76.70
2022-10-28T06:00:20.037Z,76.70
2022-10-28T06:02:48.403Z,76.80
2022-10-28T06:05:17.300Z,76.90
2022-10-28T06:07:45.468Z,76.90
2022-10-28T06:10:13.745Z,77.00
2022-10-28T06:12:40.502Z,77.00
2022-10-28T06:15:10.798Z,77.10
2022-10-28T06:17:38.971Z,77.40
2022-10-28T06:20:07.948Z,77.60
2022-10-28T06:22:36.118Z,77.90
2022-10-28T06:25:05.101Z,77.90
2022-10-28T06:27:33.333Z,78.00
2022-10-28T06:30:01.491Z,78.70
2022-10-28T06:32:31.094Z,78.00
2022-10-28T06:34:59.440Z,78.10
2022-10-28T06:37:27.603Z,78.10
2022-10-28T06:39:57.332Z,78.00
2022-10-28T06:42:25.530Z,77.90
2022-10-28T06:44:54.157Z,77.90
2022-10-28T06:47:23.876Z,77.90
2022-10-28T06:49:53.428Z,77.80
2022-10-28T06:52:21.621Z,77.80
2022-10-28T06:54:49.800Z,77.70
2022-10-28T06:57:17.980Z,77.60
2022-10-28T06:59:46.161Z,77.60
2022-10-28T07:02:15.885Z,77.50
2022-10-28T07:04:44.260Z,77.50
2022-10-28T07:07:13.815Z,77.50
2022-10-28T07:09:43.172Z,77.50
2022-10-28T07:12:11.394Z,77.50
2022-10-28T07:14:39.670Z,77.60
2022-10-28T07:17:07.847Z,77.80
2022-10-28T07:19:36.077Z,77.80
2022-10-28T07:22:04.333Z,77.80
2022-10-28T07:24:33.914Z,77.80
2022-10-28T07:27:02.092Z,77.90
2022-10-28T07:29:30.281Z,77.90
2022-10-28T07:31:58.494Z,77.80
2022-10-28T07:34:27.519Z,77.90
2022-10-28T07:36:57.289Z,77.90
2022-10-28T07:39:25.678Z,77.90
2022-10-28T07:41:55.365Z,77.80
2022-10-28T07:44:23.608Z,77.90
2022-10-28T07:46:55.593Z,77.90
2022-10-28T07:49:26.432Z,77.90
2022-10-28T07:51:54.592Z,77.80
2022-10-28T07:54:22.839Z,77.70
2022-10-28T07:56:51.030Z,77.70
2022-10-28T07:59:25.841Z,77.50
2022-10-28T08:01:55.580Z,77.30
2022-10-28T08:04:23.864Z,77.10
2022-10-28T08:06:52.042Z,76.90
2022-10-28T08:09:20.212Z,76.80
2022-10-28T08:11:48.492Z,76.50
2022-10-28T08:14:16.668Z,76.30
2022-10-28T08:16:47.516Z,76.10
2022-10-28T08:19:15.789Z,75.80
2022-10-28T08:21:43.974Z,75.80
2022-10-28T08:24:12.151Z,75.60
2022-10-28T08:26:40.356Z,75.60
2022-10-28T08:29:08.906Z,75.50
2022-10-28T08:31:37.131Z,75.40
2022-10-28T08:34:07.211Z,75.30
2022-10-28T08:36:35.962Z,75.20
2022-10-28T08:39:04.618Z,75.30
2022-10-28T08:41:39.447Z,75.20
2022-10-28T08:44:30.936Z,75.10
2022-10-28T08:47:15.121Z,75.00
2022-10-28T08:49:49.340Z,74.90
2022-10-28T08:52:27.817Z,74.90
2022-10-28T08:55:02.109Z,75.00
2022-10-28T08:57:37.687Z,75.00
2022-10-28T09:00:09.087Z,74.80
2022-10-28T09:02:49.733Z,74.80
2022-10-28T09:05:23.419Z,74.80
2022-10-28T09:07:52.125Z,74.60
2022-10-28T09:10:36.851Z,74.80
2022-10-28T09:13:14.753Z,74.60
2022-10-28T09:15:50.546Z,74.50
2022-10-28T09:18:22.199Z,74.60
2022-10-28T09:20:55.304Z,74.70
2022-10-28T09:23:25.411Z,74.70
2022-10-28T09:26:08.912Z,74.30
2022-10-28T09:28:50.268Z,73.80
2022-10-28T09:31:25.567Z,73.50
2022-10-28T09:34:05.991Z,73.40
2022-10-28T09:36:38.925Z,73.00
2022-10-28T09:39:08.491Z,73.30
2022-10-28T09:41:40.450Z,72.90
2022-10-28T09:44:15.573Z,72.70
2022-10-28T09:46:47.148Z,72.50
2022-10-28T09:49:22.069Z,72.50
2022-10-28T09:51:56.960Z,72.30
2022-10-28T09:54:37.185Z,72.20
2022-10-28T09:57:06.226Z,72.00
2022-10-28T09:59:35.351Z,72.30
2022-10-28T10:02:05.703Z,72.20
2022-10-28T10:04:35.813Z,72.00
2022-10-28T10:07:10.553Z,72.10
2022-10-28T10:09:40.633Z,71.80
2022-10-28T10:12:11.117Z,71.80
2022-10-28T10:14:42.649Z,72.00
2022-10-28T10:17:16.060Z,71.80
2022-10-28T10:20:02.986Z,71.80
2022-10-28T10:22:34.427Z,71.60
2022-10-28T10:25:03.108Z,71.70
2022-10-28T10:27:32.680Z,71.60
2022-10-28T10:30:01.219Z,71.40
2022-10-28T10:32:32.563Z,71.10
2022-10-28T10:35:07.210Z,70.90
2022-10-28T10:37:37.764Z,71.00
2022-10-28T10:40:17.742Z,71.00
2022-10-28T10:42:57.449Z,70.90
2022-10-28T10:45:34.243Z,70.90
2022-10-28T10:48:14.199Z,70.80
2022-10-28T10:50:43.586Z,70.60
2022-10-28T10:53:34.391Z,70.80
2022-10-28T10:56:03.755Z,70.30
2022-10-28T10:58:34.103Z,70.70
2022-10-28T11:01:05.530Z,70.70
2022-10-28T11:03:36.857Z,70.70
2022-10-28T11:06:24.275Z,70.70
2022-10-28T11:08:59.585Z,70.70
2022-10-28T11:11:38.300Z,70.60
2022-10-28T11:14:19.267Z,70.50
2022-10-28T11:16:52.157Z,70.60
2022-10-28T11:19:23.415Z,70.70
2022-10-28T11:22:13.587Z,70.80
2022-10-28T11:24:58.563Z,70.60
2022-10-28T11:27:35.620Z,70.70
2022-10-28T11:30:04.220Z,70.60
2022-10-28T11:33:01.957Z,70.90
2022-10-28T11:36:00.470Z,70.70
2022-10-28T11:38:44.701Z,70.70
2022-10-28T11:41:24.567Z,71.30
2022-10-28T11:44:04.950Z,70.50
2022-10-28T11:46:51.085Z,70.50
2022-10-28T11:49:50.579Z,70.20
2022-10-28T11:52:30.948Z,70.00
2022-10-28T11:55:07.760Z,70.10
2022-10-28T11:57:52.177Z,70.20
2022-10-28T12:00:36.117Z,70.00
2022-10-28T12:03:24.057Z,69.70
2022-10-28T12:06:01.287Z,69.60
2022-10-28T12:08:41.573Z,69.60
2022-10-28T12:11:20.773Z,69.40
2022-10-28T12:13:58.643Z,69.40
2022-10-28T12:16:34.108Z,70.20
2022-10-28T12:19:06.724Z,69.50
2022-10-28T12:21:37.668Z,69.70
2022-10-28T12:24:13.285Z,69.80
2022-10-28T12:26:45.007Z,69.60
2022-10-28T12:29:17.578Z,69.40
2022-10-28T12:31:50.083Z,70.10
2022-10-28T12:34:23.460Z,69.20
2022-10-28T12:36:58.111Z,69.20
2022-10-28T12:39:29.765Z,69.20
2022-10-28T12:42:03.921Z,69.30
2022-10-28T12:44:35.189Z,69.20
2022-10-28T12:47:17.466Z,69.30
2022-10-28T12:49:55.582Z,69.20
2022-10-28T12:52:37.941Z,69.30
2022-10-28T12:55:18.864Z,69.40
2022-10-28T12:57:52.963Z,69.50
2022-10-28T13:00:25.556Z,69.20
2022-10-28T13:03:02.817Z,69.20
2022-10-28T13:05:38.096Z,69.00
2022-10-28T13:08:27.880Z,69.60
2022-10-28T13:11:18.562Z,68.80
2022-10-28T13:13:54.106Z,68.60
2022-10-28T13:16:44.672Z,68.60
2022-10-28T13:19:26.068Z,68.10
2022-10-28T13:22:16.097Z,67.90
2022-10-28T13:24:53.215Z,67.90
2022-10-28T13:27:22.805Z,67.70
2022-10-28T13:29:53.545Z,67.80
2022-10-28T13:32:38.894Z,67.50
2022-10-28T13:35:16.410Z,68.10
2022-10-28T13:37:48.681Z,67.20
2022-10-28T13:40:26.177Z,67.50
2022-10-28T13:42:54.626Z,67.50
2022-10-28T13:45:53.773Z,67.40
2022-10-28T13:48:50.530Z,67.50
2022-10-28T13:51:35.356Z,67.50
2022-10-28T13:54:03.565Z,67.10
2022-10-28T13:56:49.334Z,67.40
2022-10-28T13:59:28.284Z,67.20
2022-10-28T14:02:32.589Z,67.40
2022-10-28T14:05:01.666Z,67.10
2022-10-28T14:07:32.957Z,67.00
2022-10-28T14:10:20.213Z,67.20
2022-10-28T14:12:52.670Z,67.10
2022-10-28T14:15:26.471Z,67.20
2022-10-28T14:18:09.820Z,67.10
2022-10-28T14:21:00.820Z,67.30
2022-10-28T14:24:08.984Z,67.30
2022-10-28T14:27:15.404Z,67.20
2022-10-28T14:29:47.614Z,67.20
2022-10-28T14:32:42.961Z,67.20
2022-10-28T14:35:24.869Z,67.20
2022-10-28T14:38:17.179Z,67.30
2022-10-28T14:40:48.215Z,68.00
2022-10-28T14:43:35.480Z,68.10
2022-10-28T14:46:21.083Z,67.20
2022-10-28T14:48:51.832Z,67.20
2022-10-28T14:51:22.674Z,67.50
2022-10-28T14:53:57.410Z,67.60
2022-10-28T14:56:28.046Z,67.70
2022-10-28T14:59:00.404Z,67.90
2022-10-28T15:01:34.935Z,67.90
2022-10-28T15:04:05.062Z,67.90
2022-10-28T15:06:39.077Z,67.90
2022-10-28T15:09:19.604Z,67.90
2022-10-28T15:11:51.367Z,67.80
2022-10-28T15:14:30.565Z,67.80
2022-10-28T15:17:00.519Z,68.30
2022-10-28T15:19:30.439Z,67.80
2022-10-28T15:22:07.651Z,67.70
2022-10-28T15:24:37.725Z,67.80
2022-10-28T15:27:07.058Z,67.90
2022-10-28T15:29:35.446Z,68.10
2022-10-28T15:32:13.891Z,68.10
2022-10-28T15:34:42.449Z,68.20
2022-10-28T15:37:10.994Z,68.40
2022-10-28T15:39:41.183Z,68.40
2022-10-28T15:42:31.789Z,68.50
2022-10-28T15:45:00.913Z,68.40
2022-10-28T15:47:34.401Z,68.30
2022-10-28T15:50:06.280Z,68.20
2022-10-28T15:52:44.427Z,68.20
2022-10-28T15:55:41.429Z,68.10
2022-10-28T15:58:35.696Z,68.10
2022-10-28T16:01:05.034Z,68.00
2022-10-28T16:03:43.895Z,68.80
2022-10-28T16:06:24.620Z,67.90
2022-10-28T16:09:17.663Z,68.00
2022-10-28T16:11:51.393Z,67.90
2022-10-28T16:14:33.640Z,67.80
2022-10-28T16:17:13.821Z,68.40
2022-10-28T16:19:45.440Z,67.70
2022-10-28T16:22:15.157Z,67.70
2022-10-28T16:24:43.640Z,67.80
2022-10-28T16:27:21.164Z,67.80
2022-10-28T16:29:49.894Z,67.80
2022-10-28T16:32:20.409Z,67.90
2022-10-28T16:34:48.595Z,68.00
2022-10-28T16:37:23.067Z,68.00
2022-10-28T16:39:51.632Z,68.10
2022-10-28T16:42:22.849Z,68.20
2022-10-28T16:44:51.633Z,68.20
2022-10-28T16:47:21.762Z,68.40
2022-10-28T16:49:54.258Z,68.40
2022-10-28T16:52:26.936Z,68.50
2022-10-28T16:54:55.217Z,68.60
2022-10-28T16:57:25.132Z,68.70
2022-10-28T16:59:53.655Z,68.80
2022-10-28T17:02:25.193Z,68.90
2022-10-28T17:04:53.592Z,68.90
2022-10-28T17:07:21.766Z,69.00
2022-10-28T17:09:51.973Z,69.10
2022-10-28T17:12:22.760Z,69.20
2022-10-28T17:14:52.613Z,69.30
2022-10-28T17:17:21.647Z,69.40
2022-10-28T17:19:49.836Z,69.50
2022-10-28T17:22:18.003Z,69.70
2022-10-28T17:24:46.227Z,69.70
2022-10-28T17:27:14.476Z,69.90
2022-10-28T17:29:42.715Z,70.10
2022-10-28T17:32:12.547Z,70.10
2022-10-28T17:34:40.705Z,70.30
2022-10-28T17:37:08.984Z,70.40
2022-10-28T17:39:37.989Z,70.40
2022-10-28T17:42:06.336Z,70.50
2022-10-28T17:44:34.546Z,70.40
2022-10-28T17:47:03.113Z,70.50
2022-10-28T17:49:34.336Z,70.60
2022-10-28T17:52:02.559Z,70.60
2022-10-28T17:54:30.763Z,70.50
2022-10-28T17:56:58.932Z,70.40
2022-10-28T17:59:27.110Z,70.40
2022-10-28T18:01:55.572Z,70.40
2022-10-28T18:04:26.247Z,70.40
2022-10-28T18:06:57.961Z,70.40
2022-10-28T18:09:27.718Z,70.40
2022-10-28T18:11:55.962Z,71.50
2022-10-28T18:14:24.171Z,72.00
2022-10-28T18:16:52.368Z,71.90
2022-10-28T18:19:20.627Z,71.70
2022-10-28T18:21:48.964Z,71.30
2022-10-28T18:24:20.555Z,70.70
2022-10-28T18:26:51.554Z,70.40
2022-10-28T18:29:19.722Z,70.00
2022-10-28T18:31:48.419Z,69.70
2022-10-28T18:34:16.809Z,69.60
2022-10-28T18:36:45.068Z,69.20
2022-10-28T18:39:13.697Z,69.00
2022-10-28T18:41:43.867Z,68.60
2022-10-28T18:44:14.378Z,68.30
2022-10-28T18:46:45.131Z,68.10
2022-10-28T18:49:13.569Z,67.80
2022-10-28T18:51:41.792Z,67.70
2022-10-28T18:54:10.081Z,67.50
2022-10-28T18:56:38.663Z,67.30
2022-10-28T18:59:08.278Z,67.30
2022-10-28T19:01:36.538Z,67.20
2022-10-28T19:04:06.277Z,67.20
2022-10-28T19:06:35.443Z,67.20
2022-10-28T19:09:05.517Z,67.20
2022-10-28T19:11:35.252Z,67.10
2022-10-28T19:14:05.951Z,67.00
2022-10-28T19:16:36.208Z,67.00
2022-10-28T19:19:05.893Z,67.00
2022-10-28T19:21:34.803Z,67.20
2022-10-28T19:24:03.548Z,67.20
2022-10-28T19:26:33.635Z,67.50
2022-10-28T19:29:02.033Z,67.60
2022-10-28T19:31:30.808Z,67.90
2022-10-28T19:34:00.400Z,68.10
2022-10-28T19:36:30.594Z,68.40
2022-10-28T19:38:59.659Z,68.60
2022-10-28T19:41:30.250Z,68.90
2022-10-28T19:44:00.413Z,69.20
2022-10-28T19:46:30.004Z,69.40
2022-10-28T19:49:03.176Z,69.70
2022-10-28T19:51:32.572Z,69.80
2022-10-28T19:54:02.301Z,70.00
2022-10-28T19:56:31.855Z,70.20
2022-10-28T19:59:02.326Z,70.30
2022-10-28T20:01:32.450Z,70.40
2022-10-28T20:04:02.264Z,70.70
2022-10-28T20:06:33.390Z,70.70
2022-10-28T20:09:01.714Z,70.90
2022-10-28T20:11:32.610Z,71.00
2022-10-28T20:14:03.253Z,71.10
2022-10-28T20:16:31.931Z,71.10
2022-10-28T20:19:01.740Z,71.20
2022-10-28T20:21:31.356Z,71.40
2022-10-28T20:23:59.700Z,71.40
2022-10-28T20:26:29.048Z,71.50
2022-10-28T20:28:58.197Z,71.50
2022-10-28T20:31:27.851Z,71.50
2022-10-28T20:33:57.769Z,71.50
2022-10-28T20:36:29.432Z,71.60
2022-10-28T20:38:59.520Z,71.70
2022-10-28T20:41:29.736Z,71.80
2022-10-28T20:43:58.476Z,71.90
2022-10-28T20:46:27.478Z,71.90
2022-10-28T20:48:56.549Z,72.00
2022-10-28T20:51:27.358Z,72.10
2022-10-28T20:53:56.172Z,72.30
2022-10-28T20:56:25.874Z,72.60
2022-10-28T20:58:54.672Z,72.80
2022-10-28T21:01:25.433Z,72.90
2022-10-28T21:03:55.836Z,72.90
2022-10-28T21:06:24.234Z,72.80
2022-10-28T21:08:54.686Z,72.50
2022-10-28T21:11:23.976Z,72.40
2022-10-28T21:13:53.368Z,72.30
2022-10-28T21:16:22.445Z,72.30
2022-10-28T21:18:51.226Z,72.30
2022-10-28T21:21:20.093Z,72.30
2022-10-28T21:23:48.293Z,72.30
2022-10-28T21:26:18.051Z,72.20
2022-10-28T21:28:49.307Z,72.20
2022-10-28T21:31:18.294Z,72.20
2022-10-28T21:33:47.073Z,72.10
2022-10-28T21:36:16.802Z,72.10
2022-10-28T21:38:45.363Z,72.30
2022-10-28T21:41:14.953Z,72.30
2022-10-28T21:43:47.737Z,72.40
2022-10-28T21:46:16.376Z,72.40
2022-10-28T21:48:44.846Z,72.50
2022-10-28T21:51:15.382Z,72.70
2022-10-28T21:53:45.138Z,72.80
2022-10-28T21:56:18.189Z,73.00
2022-10-28T21:58:49.339Z,73.10
2022-10-28T22:01:19.854Z,73.00
2022-10-28T22:03:48.328Z,73.10
2022-10-28T22:06:16.807Z,73.30
2022-10-28T22:08:44.989Z,73.30
2022-10-28T22:11:15.620Z,73.20
2022-10-28T22:13:45.045Z,73.10
2022-10-28T22:16:16.415Z,72.90
2022-10-28T22:18:45.635Z,72.90
2022-10-28T22:21:15.764Z,72.80
2022-10-28T22:23:44.283Z,72.70
2022-10-28T22:26:14.452Z,72.70
2022-10-28T22:28:43.000Z,72.80
2022-10-28T22:31:12.921Z,72.80
2022-10-28T22:33:42.586Z,72.90
2022-10-28T22:36:12.345Z,73.00
2022-10-28T22:38:41.087Z,73.20
2022-10-28T22:41:12.712Z,73.20
2022-10-28T22:43:41.593Z,73.20
2022-10-28T22:46:10.836Z,73.30
2022-10-28T22:48:39.307Z,73.20
2022-10-28T22:51:09.656Z,73.40
2022-10-28T22:53:38.972Z,73.50
2022-10-28T22:56:07.874Z,73.70
2022-10-28T22:58:36.195Z,73.70
2022-10-28T23:01:09.049Z,73.80
2022-10-28T23:03:39.161Z,73.80
2022-10-28T23:06:09.757Z,73.70
2022-10-28T23:08:39.619Z,73.60
2022-10-28T23:11:08.855Z,73.50
2022-10-28T23:16:12.125Z,73.30
2022-10-28T23:18:41.211Z,73.40
2022-10-28T23:21:13.090Z,73.70
2022-10-28T23:23:41.223Z,73.80
2022-10-28T23:26:11.615Z,73.80
2022-10-28T23:28:39.823Z,73.70
2022-10-28T23:31:08.926Z,73.80
2022-10-28T23:33:37.104Z,74.00
2022-10-28T23:36:06.100Z,73.90
2022-10-28T23:38:35.747Z,73.90
2022-10-28T23:41:06.809Z,73.90
2022-10-28T23:43:35.620Z,73.80
2022-10-28T23:46:03.799Z,73.70
2022-10-28T23:48:32.139Z,73.80
2022-10-28T23:51:00.500Z,73.90
2022-10-28T23:53:30.519Z,73.90
2022-10-28T23:56:00.659Z,73.80
2022-10-28T23:58:28.819Z,73.80
